Time;durP1;ratioP1;P1;durP2;ratioP2;P2;SDS_P1;SDS_P2;PMS_P1;PMS_P2;Temp;Humidity;BMP_temperature;BMP_pressure;BME280_temperature;BME280_humidity;BME280_pressure;Samples;Min_cycle;Max_cycle;Signal;HPM_P1;HPM_P2
2021/12/16 00:02:59;;;;;;;14.38;8.60;;;;;;;;;;5018775;28;20041;-82
2021/12/16 00:08:14;;;;;;;16.67;9.63;;;;;;;;;;5024226;28;20056;-82
2021/12/16 00:10:50;;;;;;;18.33;10.90;;;;;;;;;;5037372;28;20108;-82
2021/12/16 00:34:55;;;;;;;14.05;8.73;;;;;;;;;;5018227;28;20100;-82
2021/12/16 00:37:21;;;;;;;13.60;8.50;;;;;;;;;;5016236;28;20392;-82
2021/12/16 00:39:47;;;;;;;16.63;8.85;;;;;;;;;;5037173;28;20345;-82
2021/12/16 00:42:45;;;;;;;12.93;8.80;;;;;;;;;;5034392;28;20013;-82
2021/12/16 00:45:30;;;;;;;13.85;7.90;;;;;;;;;;5029773;28;20477;-82
2021/12/16 00:48:00;;;;;;;15.60;8.48;;;;;;;;;;5032335;28;20022;-82
2021/12/16 00:58:08;;;;;;;14.95;8.93;;;;;;;;;;5029216;28;20045;-82
2021/12/16 01:00:35;;;;;;;13.55;8.15;;;;;;;;;;5015607;28;20399;-82
2021/12/16 01:03:21;;;;;;;13.75;7.97;;;;;;;;;;5015980;28;20446;-82
2021/12/16 01:06:07;;;;;;;13.85;8.88;;;;;;;;;;5001446;28;20443;-83
2021/12/16 01:33:57;;;;;;;14.13;7.55;;;;;;;;;;5020905;28;20143;-82
2021/12/16 01:49:54;;;;;;;15.43;7.78;;;;;;;;;;5034317;28;20096;-82
2021/12/16 01:57:43;;;;;;;13.93;7.80;;;;;;;;;;5016805;28;20476;-82
2021/12/16 02:00:18;;;;;;;14.68;7.50;;;;;;;;;;5016558;28;20076;-82
2021/12/16 02:02:51;;;;;;;15.50;7.97;;;;;;;;;;5019648;28;20511;-82
2021/12/16 02:10:41;;;;;;;14.25;7.97;;;;;;;;;;5036316;28;20026;-82
2021/12/16 02:32:37;;;;;;;11.73;6.60;;;;;;;;;;5031929;28;20065;-82
2021/12/16 02:37:33;;;;;;;11.98;6.90;;;;;;;;;;5023905;28;20404;-81
2021/12/16 02:40:01;;;;;;;10.70;6.65;;;;;;;;;;5020215;28;20407;-81
2021/12/16 02:42:36;;;;;;;10.10;5.70;;;;;;;;;;5024291;28;20029;-82
2021/12/16 02:50:22;;;;;;;9.90;5.38;;;;;;;;;;5035136;28;20045;-82
2021/12/16 02:52:48;;;;;;;8.85;5.28;;;;;;;;;;5033435;28;20022;-82
2021/12/16 02:55:16;;;;;;;11.05;5.90;;;;;;;;;;5035085;28;20089;-82
2021/12/16 02:57:59;;;;;;;8.70;5.20;;;;;;;;;;5024778;28;20041;-82
2021/12/16 03:00:26;;;;;;;10.88;6.20;;;;;;;;;;5033913;28;20093;-82
2021/12/16 03:02:53;;;;;;;11.77;6.40;;;;;;;;;;5023961;28;20522;-82
2021/12/16 03:05:20;;;;;;;9.63;5.72;;;;;;;;;;5033048;28;20022;-82
2021/12/16 03:07:47;;;;;;;11.60;6.82;;;;;;;;;;5018900;28;20486;-82
2021/12/16 03:13:01;;;;;;;11.43;6.15;;;;;;;;;;5021349;28;20064;-82
2021/12/16 03:21:21;;;;;;;10.25;5.63;;;;;;;;;;5022305;28;20049;-82
2021/12/16 03:30:03;;;;;;;10.82;6.38;;;;;;;;;;4993345;28;20504;-82
2021/12/16 03:35:24;;;;;;;10.98;6.55;;;;;;;;;;4998969;28;20449;-82
2021/12/16 03:37:50;;;;;;;11.13;6.40;;;;;;;;;;4992310;28;20066;-82
2021/12/16 03:40:16;;;;;;;11.48;6.55;;;;;;;;;;4993268;28;20421;-82
2021/12/16 03:42:47;;;;;;;9.40;6.03;;;;;;;;;;4995827;28;20117;-82
2021/12/16 03:46:25;;;;;;;9.93;5.88;;;;;;;;;;4986484;28;20027;-82
2021/12/16 03:47:59;;;;;;;10.00;5.90;;;;;;;;;;4998475;28;20381;-82
2021/12/16 03:50:25;;;;;;;10.80;6.13;;;;;;;;;;4976721;28;20070;-82
2021/12/16 03:52:51;;;;;;;11.20;7.05;;;;;;;;;;4993479;28;20034;-82
2021/12/16 03:55:18;;;;;;;10.90;6.32;;;;;;;;;;4975873;28;20756;-82
2021/12/16 03:57:44;;;;;;;13.10;7.35;;;;;;;;;;5009749;28;20099;-82
2021/12/16 04:00:13;;;;;;;11.60;6.75;;;;;;;;;;5035187;28;20025;-82
2021/12/16 04:02:39;;;;;;;12.50;7.55;;;;;;;;;;5016562;28;20029;-82
2021/12/16 04:05:07;;;;;;;11.77;7.30;;;;;;;;;;5022094;28;20033;-82
2021/12/16 04:07:34;;;;;;;12.55;7.40;;;;;;;;;;5015304;28;20026;-82
2021/12/16 04:10:00;;;;;;;12.38;7.32;;;;;;;;;;5034294;28;20399;-81
2021/12/16 04:12:28;;;;;;;11.25;6.75;;;;;;;;;;5017930;28;20392;-82
2021/12/16 04:14:56;;;;;;;12.95;7.32;;;;;;;;;;5014689;28;20025;-81
2021/12/16 04:17:23;;;;;;;12.60;7.47;;;;;;;;;;4998848;28;20499;-81
2021/12/16 04:19:50;;;;;;;14.13;7.65;;;;;;;;;;5012988;28;20037;-82
2021/12/16 04:22:18;;;;;;;12.82;7.43;;;;;;;;;;5016026;28;20445;-82
2021/12/16 04:24:46;;;;;;;14.43;8.10;;;;;;;;;;5011699;28;20105;-81
2021/12/16 04:27:12;;;;;;;14.32;8.93;;;;;;;;;;5012685;28;20404;-82
2021/12/16 04:29:38;;;;;;;13.00;7.85;;;;;;;;;;5013910;28;20033;-82
2021/12/16 04:32:06;;;;;;;13.13;7.78;;;;;;;;;;5014327;28;20026;-82
2021/12/16 04:34:34;;;;;;;13.68;8.32;;;;;;;;;;5014449;28;20037;-82
2021/12/16 04:37:00;;;;;;;16.40;8.80;;;;;;;;;;5023363;28;20052;-82
2021/12/16 04:39:28;;;;;;;12.95;7.93;;;;;;;;;;5025310;28;20034;-82
2021/12/16 04:41:55;;;;;;;14.85;8.43;;;;;;;;;;5020467;28;20026;-80
2021/12/16 04:44:22;;;;;;;13.23;8.10;;;;;;;;;;5017549;28;20391;-82
2021/12/16 04:46:48;;;;;;;13.77;8.88;;;;;;;;;;5021168;28;20037;-82
2021/12/16 04:49:15;;;;;;;17.30;9.13;;;;;;;;;;5016617;28;20026;-82
2021/12/16 04:51:43;;;;;;;16.15;9.38;;;;;;;;;;5026742;28;20408;-82
2021/12/16 04:54:10;;;;;;;16.77;10.23;;;;;;;;;;5019822;28;20022;-80
2021/12/16 04:56:37;;;;;;;17.58;10.18;;;;;;;;;;5024022;28;20029;-81
2021/12/16 04:59:08;;;;;;;14.82;9.20;;;;;;;;;;5016166;28;20048;-81
2021/12/16 05:01:34;;;;;;;16.40;9.35;;;;;;;;;;5016962;28;20030;-81
2021/12/16 05:04:00;;;;;;;18.35;10.00;;;;;;;;;;5017718;28;20029;-82
2021/12/16 05:06:26;;;;;;;17.35;10.88;;;;;;;;;;5021732;28;20033;-82
2021/12/16 05:08:52;;;;;;;16.27;10.18;;;;;;;;;;5018272;28;20030;-81
2021/12/16 05:11:18;;;;;;;18.33;10.82;;;;;;;;;;5029571;28;20107;-81
2021/12/16 05:13:45;;;;;;;15.82;9.98;;;;;;;;;;5019233;28;20097;-81
2021/12/16 05:16:12;;;;;;;16.10;9.73;;;;;;;;;;5020874;28;20099;-82
2021/12/16 05:18:39;;;;;;;16.80;10.35;;;;;;;;;;5025228;28;20468;-82
2021/12/16 05:21:14;;;;;;;15.68;9.50;;;;;;;;;;5024768;28;20033;-82
2021/12/16 05:26:24;;;;;;;17.40;9.55;;;;;;;;;;4997810;28;20034;-82
2021/12/16 05:28:53;;;;;;;16.48;9.52;;;;;;;;;;4999754;28;20112;-81
2021/12/16 05:31:20;;;;;;;17.35;10.43;;;;;;;;;;5022719;28;20083;-82
2021/12/16 05:33:47;;;;;;;15.15;8.88;;;;;;;;;;5017246;28;20021;-82
2021/12/16 05:36:13;;;;;;;16.83;10.45;;;;;;;;;;5017400;28;20017;-82
2021/12/16 05:38:39;;;;;;;14.00;8.88;;;;;;;;;;5037414;28;20029;-82
2021/12/16 05:41:08;;;;;;;16.35;9.07;;;;;;;;;;5034498;28;20029;-82
2021/12/16 05:43:34;;;;;;;13.18;8.32;;;;;;;;;;5020736;28;20048;-82
2021/12/16 05:46:01;;;;;;;16.70;9.70;;;;;;;;;;5020288;28;20029;-82
2021/12/16 05:48:30;;;;;;;14.63;8.27;;;;;;;;;;5023511;28;20030;-82
2021/12/16 05:50:58;;;;;;;16.90;9.82;;;;;;;;;;5025400;28;20047;-82
2021/12/16 05:53:25;;;;;;;14.30;9.10;;;;;;;;;;5030542;28;20029;-82
2021/12/16 05:55:51;;;;;;;15.57;9.30;;;;;;;;;;5020456;28;20040;-82
2021/12/16 05:58:18;;;;;;;15.15;9.02;;;;;;;;;;5023217;28;20061;-82
2021/12/16 06:00:45;;;;;;;15.07;8.68;;;;;;;;;;5026045;28;20464;-82
2021/12/16 06:03:12;;;;;;;17.35;10.50;;;;;;;;;;5027164;28;20075;-81
2021/12/16 06:05:38;;;;;;;15.52;9.35;;;;;;;;;;5030015;28;20041;-82
2021/12/16 06:08:04;;;;;;;17.17;10.27;;;;;;;;;;5021432;28;20025;-81
2021/12/16 06:13:15;;;;;;;15.82;9.27;;;;;;;;;;5024756;28;20103;-83
2021/12/16 06:26:37;;;;;;;12.85;7.80;;;;;;;;;;5025388;28;20103;-83
2021/12/16 06:29:04;;;;;;;15.38;8.35;;;;;;;;;;5021572;28;20112;-82
2021/12/16 06:31:30;;;;;;;13.55;7.97;;;;;;;;;;5016426;28;20495;-82
2021/12/16 06:33:57;;;;;;;13.43;8.27;;;;;;;;;;5016120;28;20033;-82
2021/12/16 06:36:23;;;;;;;14.70;7.95;;;;;;;;;;5023095;28;20410;-83
2021/12/16 06:38:49;;;;;;;14.60;8.32;;;;;;;;;;5024373;28;20038;-82
2021/12/16 06:41:16;;;;;;;14.93;8.82;;;;;;;;;;5018287;28;20030;-81
2021/12/16 06:43:43;;;;;;;14.13;8.18;;;;;;;;;;5017817;28;20025;-81
2021/12/16 06:46:11;;;;;;;14.65;9.23;;;;;;;;;;5019988;28;20101;-82
2021/12/16 06:48:40;;;;;;;14.38;9.05;;;;;;;;;;5030186;28;20511;-82
2021/12/16 06:51:17;;;;;;;15.40;10.27;;;;;;;;;;5014125;28;20029;-82
2021/12/16 06:53:51;;;;;;;19.60;9.93;;;;;;;;;;5014545;28;20483;-82
2021/12/16 06:56:34;;;;;;;18.92;13.45;;;;;;;;;;5026404;28;20088;-82
2021/12/16 07:01:41;;;;;;;13.35;9.15;;;;;;;;;;5015767;28;20071;-82
2021/12/16 07:04:09;;;;;;;15.52;9.07;;;;;;;;;;5013683;28;20033;-82
2021/12/16 07:06:35;;;;;;;14.70;8.77;;;;;;;;;;5022439;28;20032;-82
2021/12/16 07:09:04;;;;;;;13.20;8.45;;;;;;;;;;5019146;28;20041;-81
2021/12/16 07:11:36;;;;;;;17.35;9.93;;;;;;;;;;5013699;28;20036;-81
2021/12/16 07:14:04;;;;;;;14.48;9.18;;;;;;;;;;5025669;28;20030;-82
2021/12/16 07:16:30;;;;;;;17.90;10.02;;;;;;;;;;5025755;28;20014;-82
2021/12/16 07:18:57;;;;;;;15.23;9.80;;;;;;;;;;5018032;28;20037;-81
2021/12/16 07:21:23;;;;;;;15.73;9.23;;;;;;;;;;5015094;28;20042;-83
2021/12/16 07:23:50;;;;;;;16.30;10.25;;;;;;;;;;5013966;28;20034;-82
2021/12/16 07:26:16;;;;;;;15.52;9.65;;;;;;;;;;5020644;28;20051;-82
2021/12/16 07:28:42;;;;;;;16.13;10.57;;;;;;;;;;5024840;28;20030;-82
2021/12/16 07:31:08;;;;;;;17.75;10.50;;;;;;;;;;5030597;28;20106;-80
2021/12/16 07:33:34;;;;;;;16.33;9.82;;;;;;;;;;5032122;28;20034;-82
2021/12/16 07:36:02;;;;;;;17.08;10.80;;;;;;;;;;5031145;28;20014;-83
2021/12/16 07:38:29;;;;;;;17.75;10.90;;;;;;;;;;5035409;28;20016;-82
2021/12/16 07:40:57;;;;;;;17.30;9.52;;;;;;;;;;5051895;28;20026;-82
2021/12/16 07:43:54;;;;;;;17.33;10.80;;;;;;;;;;5046281;28;20061;-83
2021/12/16 07:46:12;;;;;;;16.85;10.07;;;;;;;;;;5012396;28;20446;-83
2021/12/16 07:48:38;;;;;;;17.17;10.75;;;;;;;;;;5012540;28;20029;-83
2021/12/16 07:51:06;;;;;;;17.35;10.57;;;;;;;;;;5015484;28;21417;-83
2021/12/16 07:53:33;;;;;;;17.30;10.52;;;;;;;;;;5017655;28;20470;-83
2021/12/16 07:55:59;;;;;;;19.27;11.23;;;;;;;;;;5013895;28;20030;-83
2021/12/16 07:58:25;;;;;;;17.23;9.40;;;;;;;;;;5012583;28;20049;-84
2021/12/16 08:00:52;;;;;;;16.75;9.23;;;;;;;;;;5014822;28;20092;-83
2021/12/16 08:03:19;;;;;;;18.20;11.25;;;;;;;;;;5012603;28;20026;-83
2021/12/16 08:05:47;;;;;;;19.23;11.93;;;;;;;;;;5025072;28;20160;-83
2021/12/16 08:08:14;;;;;;;19.42;11.13;;;;;;;;;;5036958;28;20037;-83
2021/12/16 08:10:40;;;;;;;21.10;12.25;;;;;;;;;;5015335;28;20021;-82
2021/12/16 08:13:06;;;;;;;18.95;11.80;;;;;;;;;;5041765;28;20021;-83
2021/12/16 08:15:33;;;;;;;18.40;11.43;;;;;;;;;;5055952;28;20009;-83
2021/12/16 08:17:59;;;;;;;18.23;10.40;;;;;;;;;;5055561;28;20022;-83
2021/12/16 08:20:25;;;;;;;17.52;10.45;;;;;;;;;;5040713;28;20037;-81
2021/12/16 08:22:52;;;;;;;17.52;11.02;;;;;;;;;;5044682;28;20022;-82
2021/12/16 08:25:19;;;;;;;18.48;11.32;;;;;;;;;;5036435;28;20028;-83
2021/12/16 08:27:46;;;;;;;18.00;11.63;;;;;;;;;;5019483;28;20085;-83
2021/12/16 08:30:13;;;;;;;18.08;10.50;;;;;;;;;;5018046;28;20053;-82
2021/12/16 08:32:39;;;;;;;20.63;11.55;;;;;;;;;;5036010;28;20082;-82
2021/12/16 08:35:06;;;;;;;17.40;11.68;;;;;;;;;;5019156;28;20029;-82
2021/12/16 08:37:32;;;;;;;21.90;12.27;;;;;;;;;;5017435;28;20144;-82
2021/12/16 08:39:58;;;;;;;17.10;10.80;;;;;;;;;;5017706;28;20065;-82
2021/12/16 08:42:24;;;;;;;15.48;10.73;;;;;;;;;;5032665;28;20092;-82
2021/12/16 08:44:51;;;;;;;19.23;11.30;;;;;;;;;;5021359;28;20045;-81
2021/12/16 08:47:18;;;;;;;15.70;10.73;;;;;;;;;;5016771;28;20038;-82
2021/12/16 08:49:44;;;;;;;18.50;10.65;;;;;;;;;;5018434;28;20022;-82
2021/12/16 08:52:12;;;;;;;17.38;10.40;;;;;;;;;;5019306;28;20026;-82
2021/12/16 08:54:39;;;;;;;16.02;9.73;;;;;;;;;;5020380;28;20025;-83
2021/12/16 08:57:06;;;;;;;14.73;9.65;;;;;;;;;;5016516;28;20026;-82
2021/12/16 08:59:32;;;;;;;14.63;9.68;;;;;;;;;;5017561;28;20160;-81
2021/12/16 09:01:59;;;;;;;14.10;8.63;;;;;;;;;;5029155;28;20034;-81
2021/12/16 09:04:25;;;;;;;15.93;9.55;;;;;;;;;;5025126;28;20033;-82
2021/12/16 09:06:53;;;;;;;13.45;8.77;;;;;;;;;;5018026;28;20036;-82
2021/12/16 09:09:20;;;;;;;14.70;8.98;;;;;;;;;;5016760;28;20088;-83
2021/12/16 09:12:11;;;;;;;15.85;8.35;;;;;;;;;;5027036;28;20033;-82
2021/12/16 09:14:35;;;;;;;13.15;7.75;;;;;;;;;;5025001;28;20033;-80
2021/12/16 09:17:01;;;;;;;12.02;7.97;;;;;;;;;;5016592;28;20037;-82
2021/12/16 09:19:27;;;;;;;12.63;7.95;;;;;;;;;;5020736;28;20029;-81
2021/12/16 09:21:53;;;;;;;12.73;7.43;;;;;;;;;;5023403;28;20052;-83
2021/12/16 09:24:20;;;;;;;9.82;6.88;;;;;;;;;;5017201;28;20494;-81
2021/12/16 09:26:46;;;;;;;10.98;6.63;;;;;;;;;;5016081;28;20483;-82
2021/12/16 09:29:12;;;;;;;9.73;6.20;;;;;;;;;;5015971;28;20068;-82
2021/12/16 09:31:39;;;;;;;10.73;6.82;;;;;;;;;;5016165;28;20029;-82
2021/12/16 09:34:07;;;;;;;12.23;7.50;;;;;;;;;;5024562;28;20025;-82
2021/12/16 09:36:34;;;;;;;10.57;6.45;;;;;;;;;;5037420;28;20052;-82
2021/12/16 09:39:00;;;;;;;9.90;6.45;;;;;;;;;;5037775;28;20030;-81
2021/12/16 09:41:29;;;;;;;10.02;5.82;;;;;;;;;;5025383;28;20087;-81
2021/12/16 09:43:55;;;;;;;8.50;6.05;;;;;;;;;;5017731;28;20068;-81
2021/12/16 09:46:24;;;;;;;8.82;5.97;;;;;;;;;;5015597;28;20396;-81
2021/12/16 09:48:51;;;;;;;8.90;5.03;;;;;;;;;;5028947;28;20049;-81
2021/12/16 09:51:21;;;;;;;8.73;4.90;;;;;;;;;;5035138;28;20554;-80
2021/12/16 09:53:49;;;;;;;7.70;5.20;;;;;;;;;;5021511;28;20030;-81
2021/12/16 09:56:15;;;;;;;7.47;4.82;;;;;;;;;;5018073;28;20072;-81
2021/12/16 09:58:43;;;;;;;7.75;4.32;;;;;;;;;;5026539;28;20076;-81
2021/12/16 10:01:10;;;;;;;8.80;5.13;;;;;;;;;;5037012;28;20025;-81
2021/12/16 10:03:38;;;;;;;7.03;4.13;;;;;;;;;;5036029;28;20031;-81
2021/12/16 10:06:04;;;;;;;7.03;4.15;;;;;;;;;;5021034;28;20029;-81
2021/12/16 10:08:30;;;;;;;7.32;4.70;;;;;;;;;;5024244;28;20025;-81
2021/12/16 10:10:58;;;;;;;8.95;4.70;;;;;;;;;;5036558;28;20447;-80
2021/12/16 10:13:36;;;;;;;7.80;4.35;;;;;;;;;;5037253;28;20358;-81
2021/12/16 10:18:36;;;;;;;7.35;4.13;;;;;;;;;;5026743;28;20084;-81
2021/12/16 10:21:04;;;;;;;6.93;3.83;;;;;;;;;;5036145;28;20028;-81
2021/12/16 10:23:32;;;;;;;6.95;3.70;;;;;;;;;;5036758;28;20025;-80
2021/12/16 10:26:03;;;;;;;6.25;3.72;;;;;;;;;;5036056;28;20029;-82
2021/12/16 10:28:33;;;;;;;7.70;4.05;;;;;;;;;;5034788;28;20570;-80
2021/12/16 10:31:02;;;;;;;7.05;4.15;;;;;;;;;;5025020;28;20037;-80
2021/12/16 10:33:35;;;;;;;8.50;3.72;;;;;;;;;;5033136;28;20026;-80
2021/12/16 10:36:07;;;;;;;5.72;3.25;;;;;;;;;;5036047;28;20021;-81
2021/12/16 10:38:38;;;;;;;7.20;3.40;;;;;;;;;;5033078;28;20065;-81
2021/12/16 10:41:05;;;;;;;7.57;3.70;;;;;;;;;;5028746;28;20060;-81
2021/12/16 10:43:36;;;;;;;6.90;3.75;;;;;;;;;;5034905;28;20072;-81
2021/12/16 10:46:08;;;;;;;6.13;3.40;;;;;;;;;;5031868;28;20034;-81
2021/12/16 10:48:54;;;;;;;6.10;3.65;;;;;;;;;;5024401;28;20655;-83
2021/12/16 10:51:26;;;;;;;6.82;3.75;;;;;;;;;;5035075;28;20388;-82
2021/12/16 10:53:57;;;;;;;8.80;4.20;;;;;;;;;;5033674;28;20029;-80
2021/12/16 10:56:28;;;;;;;6.78;4.22;;;;;;;;;;5031441;28;20022;-81
2021/12/16 10:59:15;;;;;;;7.82;3.92;;;;;;;;;;5016554;28;20050;-81
2021/12/16 11:01:41;;;;;;;7.00;4.28;;;;;;;;;;5016523;28;20566;-81
2021/12/16 11:04:10;;;;;;;8.43;4.78;;;;;;;;;;5016527;28;20054;-81
2021/12/16 11:06:38;;;;;;;8.25;4.60;;;;;;;;;;5015183;28;20046;-81
2021/12/16 11:09:23;;;;;;;7.68;4.55;;;;;;;;;;5020298;28;20030;-81
2021/12/16 11:12:04;;;;;;;8.20;4.53;;;;;;;;;;5015311;28;20049;-81
2021/12/16 11:14:30;;;;;;;9.90;5.45;;;;;;;;;;5035228;28;20021;-81
2021/12/16 11:17:02;;;;;;;8.65;5.30;;;;;;;;;;5035226;28;20044;-81
2021/12/16 11:23:06;;;;;;;11.07;4.63;;;;;;;;;;5017271;28;20029;-81
2021/12/16 11:25:43;;;;;;;6.97;3.80;;;;;;;;;;4996202;28;20033;-82
2021/12/16 11:28:12;;;;;;;8.25;4.38;;;;;;;;;;5011588;28;20021;-81
2021/12/16 11:30:53;;;;;;;6.70;4.15;;;;;;;;;;5020587;28;20022;-80
2021/12/16 11:33:22;;;;;;;6.97;4.07;;;;;;;;;;5014332;28;20049;-81
2021/12/16 11:35:50;;;;;;;8.52;4.70;;;;;;;;;;5014918;28;20113;-82
2021/12/16 11:38:19;;;;;;;9.32;4.50;;;;;;;;;;5019765;28;20022;-81
2021/12/16 11:40:54;;;;;;;9.55;4.55;;;;;;;;;;4995064;28;20033;-80
2021/12/16 11:43:30;;;;;;;7.50;4.18;;;;;;;;;;4995756;28;20073;-81
2021/12/16 11:45:56;;;;;;;7.40;4.70;;;;;;;;;;4996343;28;20070;-82
2021/12/16 11:48:31;;;;;;;8.50;4.72;;;;;;;;;;5010265;28;20038;-82
2021/12/16 11:51:06;;;;;;;9.45;4.53;;;;;;;;;;5018771;28;20045;-82
2021/12/16 11:53:40;;;;;;;9.75;5.00;;;;;;;;;;5018645;28;20168;-81
2021/12/16 11:56:07;;;;;;;11.93;5.90;;;;;;;;;;5017482;28;20072;-80
2021/12/16 11:58:33;;;;;;;8.68;5.22;;;;;;;;;;5027719;28;20073;-80
2021/12/16 12:00:59;;;;;;;9.65;5.78;;;;;;;;;;5038008;28;20030;-80
2021/12/16 12:03:32;;;;;;;9.20;5.28;;;;;;;;;;5032473;28;20029;-81
2021/12/16 12:05:58;;;;;;;10.50;6.32;;;;;;;;;;5018131;28;20117;-81
2021/12/16 12:08:26;;;;;;;12.75;7.22;;;;;;;;;;5018478;28;20066;-81
2021/12/16 12:10:53;;;;;;;10.07;5.22;;;;;;;;;;5018708;28;20018;-81
2021/12/16 12:13:24;;;;;;;10.43;5.50;;;;;;;;;;5018782;28;20065;-81
2021/12/16 12:16:03;;;;;;;11.07;5.00;;;;;;;;;;5019497;28;20077;-82
2021/12/16 12:18:34;;;;;;;10.95;5.70;;;;;;;;;;5028945;28;20049;-81
2021/12/16 12:21:19;;;;;;;8.20;5.15;;;;;;;;;;5039100;28;20418;-81
2021/12/16 12:23:45;;;;;;;8.02;4.80;;;;;;;;;;5034197;28;20048;-82
2021/12/16 12:26:16;;;;;;;10.82;5.10;;;;;;;;;;5018078;28;20026;-81
2021/12/16 12:28:42;;;;;;;9.65;5.80;;;;;;;;;;5028293;28;20037;-81
2021/12/16 12:31:08;;;;;;;9.77;5.72;;;;;;;;;;5037324;28;20025;-81
2021/12/16 12:33:34;;;;;;;9.48;5.93;;;;;;;;;;5035047;28;20027;-81
2021/12/16 12:36:01;;;;;;;8.88;5.00;;;;;;;;;;5019747;28;20022;-81
2021/12/16 12:38:28;;;;;;;9.43;5.47;;;;;;;;;;5017541;28;20128;-81
2021/12/16 12:40:54;;;;;;;10.27;5.55;;;;;;;;;;5018839;28;20054;-80
2021/12/16 12:43:22;;;;;;;10.18;6.47;;;;;;;;;;5016787;28;20080;-81
2021/12/16 12:45:48;;;;;;;12.90;7.25;;;;;;;;;;5024425;28;20029;-81
2021/12/16 12:48:16;;;;;;;11.80;7.05;;;;;;;;;;5023873;28;20029;-80
2021/12/16 12:50:43;;;;;;;12.73;7.28;;;;;;;;;;5036302;28;20049;-81
2021/12/16 12:53:14;;;;;;;12.10;8.27;;;;;;;;;;5037212;28;20014;-81
2021/12/16 12:55:40;;;;;;;12.52;8.07;;;;;;;;;;5025793;28;20037;-81
2021/12/16 12:58:06;;;;;;;14.70;8.75;;;;;;;;;;5016546;28;20077;-81
2021/12/16 13:00:41;;;;;;;12.88;8.05;;;;;;;;;;5020201;28;20480;-80
2021/12/16 13:03:10;;;;;;;12.25;8.35;;;;;;;;;;5018509;28;20088;-81
2021/12/16 13:05:36;;;;;;;14.35;8.93;;;;;;;;;;4996027;28;20081;-80
2021/12/16 13:08:07;;;;;;;13.75;8.95;;;;;;;;;;4997329;28;20036;-81
2021/12/16 13:10:33;;;;;;;16.70;8.85;;;;;;;;;;4998179;28;20477;-80
2021/12/16 13:13:27;;;;;;;16.00;9.07;;;;;;;;;;5033026;28;20101;-81
2021/12/16 13:16:12;;;;;;;16.02;9.82;;;;;;;;;;5016681;28;20026;-81
2021/12/16 13:26:49;;;;;;;17.13;10.80;;;;;;;;;;4997509;28;20468;-80
2021/12/16 13:32:12;;;;;;;16.05;9.90;;;;;;;;;;5013020;28;20417;-80
2021/12/16 13:34:50;;;;;;;15.98;9.68;;;;;;;;;;5036333;28;20056;-81
2021/12/16 13:37:23;;;;;;;18.30;11.07;;;;;;;;;;5037075;28;20132;-81
2021/12/16 13:39:55;;;;;;;15.63;10.15;;;;;;;;;;5036999;28;20017;-80
2021/12/16 13:42:21;;;;;;;18.25;10.35;;;;;;;;;;5017232;28;20030;-81
2021/12/16 13:44:56;;;;;;;17.35;10.90;;;;;;;;;;5021161;28;20551;-81
2021/12/16 13:47:40;;;;;;;16.08;10.55;;;;;;;;;;5036167;28;20776;-80
2021/12/16 14:00:12;;;;;;;;;;;;;;;;;;5019280;28;20089;-81
2021/12/16 14:05:04;;;;;;;18.15;11.48;;;;;;;;;;5036368;28;20025;-80
2021/12/16 14:07:01;;;;;;;16.67;9.73;;;;;;;;;;5026560;28;20164;-81
2021/12/16 14:09:33;;;;;;;23.25;13.27;;;;;;;;;;4995510;28;20022;-80
2021/12/16 14:14:49;;;;;;;19.10;11.95;;;;;;;;;;5035703;28;20075;-80
2021/12/16 14:18:03;;;;;;;16.98;11.30;;;;;;;;;;5036854;28;20013;-81
2021/12/16 14:23:44;;;;;;;16.73;9.80;;;;;;;;;;4993745;28;19909;-81
2021/12/16 14:26:20;;;;;;;15.02;9.80;;;;;;;;;;5008602;28;20033;-81
2021/12/16 14:42:25;;;;;;;17.92;11.43;;;;;;;;;;5017091;28;20034;-81
2021/12/16 14:48:24;;;;;;;16.85;10.90;;;;;;;;;;5013104;28;20029;-80
2021/12/16 14:50:31;;;;;;;15.13;10.07;;;;;;;;;;5012280;28;20485;-80
2021/12/16 14:52:57;;;;;;;17.60;10.30;;;;;;;;;;5011576;28;20036;-80
2021/12/16 14:55:24;;;;;;;17.38;10.68;;;;;;;;;;5018130;28;20101;-80
2021/12/16 14:57:51;;;;;;;17.38;10.77;;;;;;;;;;5022546;28;20054;-80
2021/12/16 15:00:32;;;;;;;17.23;10.48;;;;;;;;;;5020863;28;20017;-80
2021/12/16 15:03:00;;;;;;;16.17;9.48;;;;;;;;;;5036050;28;20048;-80
2021/12/16 15:05:32;;;;;;;14.80;9.55;;;;;;;;;;5033186;28;20029;-80
2021/12/16 15:08:06;;;;;;;17.35;10.38;;;;;;;;;;5034930;28;20117;-81
2021/12/16 15:10:32;;;;;;;16.02;10.13;;;;;;;;;;5023391;28;20034;-81
2021/12/16 15:13:06;;;;;;;15.95;10.38;;;;;;;;;;5030387;28;20044;-79
2021/12/16 15:15:42;;;;;;;15.40;9.88;;;;;;;;;;5009596;28;20469;-80
2021/12/16 15:40:15;;;;;;;14.55;9.10;;;;;;;;;;4995329;28;20022;-80
2021/12/16 15:42:55;;;;;;;16.42;10.23;;;;;;;;;;5033570;28;20026;-80
2021/12/16 15:45:23;;;;;;;14.75;10.07;;;;;;;;;;5034598;28;20059;-81
2021/12/16 15:48:11;;;;;;;16.00;10.65;;;;;;;;;;5032967;28;20053;-81
2021/12/16 15:50:39;;;;;;;17.17;11.40;;;;;;;;;;5021958;28;20049;-80
2021/12/16 15:53:08;;;;;;;15.38;10.45;;;;;;;;;;5024191;28;20080;-80
2021/12/16 15:55:39;;;;;;;18.42;10.77;;;;;;;;;;5020259;28;20026;-79
2021/12/16 15:58:08;;;;;;;17.60;10.30;;;;;;;;;;5019299;28;20038;-78
2021/12/16 16:00:36;;;;;;;17.65;10.43;;;;;;;;;;5036635;28;20122;-79
2021/12/16 16:03:02;;;;;;;14.95;9.55;;;;;;;;;;5023870;28;20152;-78
2021/12/16 16:05:33;;;;;;;15.32;9.40;;;;;;;;;;5025911;28;20013;-79
2021/12/16 16:08:00;;;;;;;16.50;11.07;;;;;;;;;;5024782;28;20030;-79
2021/12/16 16:10:26;;;;;;;17.77;10.77;;;;;;;;;;5036752;28;20044;-78
2021/12/16 16:12:52;;;;;;;15.65;10.43;;;;;;;;;;5036350;28;20387;-80
2021/12/16 16:15:22;;;;;;;18.10;11.55;;;;;;;;;;5033762;28;20025;-81
2021/12/16 16:18:12;;;;;;;15.35;10.60;;;;;;;;;;5034337;28;20081;-80
2021/12/16 16:20:38;;;;;;;17.40;10.80;;;;;;;;;;5034310;28;20038;-80
2021/12/16 16:23:05;;;;;;;14.50;8.52;;;;;;;;;;5017931;28;20026;-82
2021/12/16 16:25:32;;;;;;;18.77;10.50;;;;;;;;;;5032908;28;20372;-80
2021/12/16 16:27:59;;;;;;;17.08;9.80;;;;;;;;;;5035710;28;20022;-80
2021/12/16 16:30:25;;;;;;;13.63;8.98;;;;;;;;;;5021821;28;20053;-79
2021/12/16 16:33:01;;;;;;;18.83;10.65;;;;;;;;;;5018726;28;20037;-80
2021/12/16 16:35:28;;;;;;;14.30;8.65;;;;;;;;;;5018974;28;20480;-80
2021/12/16 16:37:54;;;;;;;15.85;9.07;;;;;;;;;;5020803;28;20032;-81
2021/12/16 16:40:20;;;;;;;15.23;10.05;;;;;;;;;;5042167;28;20033;-77
2021/12/16 16:42:46;;;;;;;16.48;9.95;;;;;;;;;;5050130;28;20040;-78
2021/12/16 16:45:19;;;;;;;16.70;9.82;;;;;;;;;;5035842;28;20057;-78
2021/12/16 16:47:54;;;;;;;15.40;10.68;;;;;;;;;;5031784;28;20045;-79
2021/12/16 16:50:21;;;;;;;14.60;9.60;;;;;;;;;;5021945;28;20022;-79
2021/12/16 16:52:48;;;;;;;14.43;8.23;;;;;;;;;;5014173;28;20057;-79
2021/12/16 16:55:21;;;;;;;12.82;8.38;;;;;;;;;;5034953;28;20053;-80
2021/12/16 16:57:59;;;;;;;13.65;9.10;;;;;;;;;;5020289;28;20132;-81
2021/12/16 17:00:27;;;;;;;14.07;7.35;;;;;;;;;;5016992;28;20377;-80
2021/12/16 17:02:55;;;;;;;13.95;9.43;;;;;;;;;;5031033;28;20518;-81
2021/12/16 17:05:29;;;;;;;13.25;7.97;;;;;;;;;;5036362;28;20078;-81
2021/12/16 17:08:05;;;;;;;14.05;8.25;;;;;;;;;;5036830;28;20364;-80
2021/12/16 17:10:38;;;;;;;13.90;7.55;;;;;;;;;;5037809;28;20806;-80
2021/12/16 17:13:22;;;;;;;13.10;9.07;;;;;;;;;;5036968;28;20021;-81
2021/12/16 17:18:21;;;;;;;11.82;7.47;;;;;;;;;;5030124;28;20017;-79
2021/12/16 17:20:48;;;;;;;10.93;6.97;;;;;;;;;;5024193;28;20025;-81
2021/12/16 17:23:14;;;;;;;11.63;7.22;;;;;;;;;;5023529;28;20368;-80
2021/12/16 17:25:40;;;;;;;11.38;7.00;;;;;;;;;;5036948;28;20025;-80
2021/12/16 17:28:06;;;;;;;11.30;6.97;;;;;;;;;;5036250;28;20017;-81
2021/12/16 17:30:35;;;;;;;10.20;6.22;;;;;;;;;;5032222;28;20049;-81
2021/12/16 17:33:02;;;;;;;14.07;8.13;;;;;;;;;;5017884;28;20030;-82
2021/12/16 17:35:28;;;;;;;12.25;6.82;;;;;;;;;;5016613;28;20026;-81
2021/12/16 17:37:59;;;;;;;8.75;5.70;;;;;;;;;;5015877;28;20018;-81
2021/12/16 17:40:37;;;;;;;9.95;5.95;;;;;;;;;;5024447;28;20057;-81
2021/12/16 17:43:05;;;;;;;8.25;5.68;;;;;;;;;;5022284;28;20537;-81
2021/12/16 17:45:31;;;;;;;8.80;5.30;;;;;;;;;;5030622;28;20183;-82
2021/12/16 17:48:00;;;;;;;8.20;5.13;;;;;;;;;;5036145;28;20026;-81
2021/12/16 17:50:28;;;;;;;8.48;5.32;;;;;;;;;;5019480;28;20034;-81
2021/12/16 17:52:56;;;;;;;8.80;5.30;;;;;;;;;;5016875;28;20022;-81
2021/12/16 17:55:30;;;;;;;8.70;5.60;;;;;;;;;;5015447;28;20061;-81
2021/12/16 17:57:59;;;;;;;9.23;5.38;;;;;;;;;;5024516;28;20056;-81
2021/12/16 18:00:27;;;;;;;7.53;5.20;;;;;;;;;;5025687;28;20072;-82
2021/12/16 18:02:54;;;;;;;8.93;5.13;;;;;;;;;;5036023;28;20026;-82
2021/12/16 18:05:21;;;;;;;7.63;4.70;;;;;;;;;;5036018;28;20025;-81
2021/12/16 18:07:47;;;;;;;7.95;4.88;;;;;;;;;;5025500;28;20029;-83
2021/12/16 18:10:14;;;;;;;7.70;4.60;;;;;;;;;;5036445;28;20558;-82
2021/12/16 18:12:43;;;;;;;11.20;6.38;;;;;;;;;;5029044;28;20029;-83
2021/12/16 18:15:09;;;;;;;6.65;3.80;;;;;;;;;;5024840;28;20467;-82
2021/12/16 18:17:39;;;;;;;7.90;5.43;;;;;;;;;;5023070;28;20025;-82
2021/12/16 18:20:09;;;;;;;6.95;3.80;;;;;;;;;;5017270;28;20033;-83
2021/12/16 18:22:37;;;;;;;8.27;4.93;;;;;;;;;;5017889;28;20033;-82
2021/12/16 18:25:16;;;;;;;7.55;4.75;;;;;;;;;;5028432;28;20061;-81
2021/12/16 18:27:45;;;;;;;7.68;4.93;;;;;;;;;;5012210;28;20033;-83